sensor_id;sensor_type;location;lat;lon;timestamp;pressure;altitude;pressure_sealevel;temperature;humidity
26978;BME280;56314;48.088;11.642;2023-07-16T00:01:56;95135.53;;;23.98;60.78
26978;BME280;56314;48.088;11.642;2023-07-16T00:04:21;95138.63;;;23.95;61.15
26978;BME280;56314;48.088;11.642;2023-07-16T00:06:46;95138.81;;;23.80;61.61
26978;BME280;56314;48.088;11.642;2023-07-16T00:09:11;95150.13;;;23.76;62.27
26978;BME280;56314;48.088;11.642;2023-07-16T00:11:37;95142.31;;;23.74;62.40
26978;BME280;56314;48.088;11.642;2023-07-16T00:14:02;95139.00;;;23.65;63.14
26978;BME280;56314;48.088;11.642;2023-07-16T00:16:28;95158.81;;;23.44;64.20
26978;BME280;56314;48.088;11.642;2023-07-16T00:18:53;95160.03;;;23.42;64.69
26978;BME280;56314;48.088;11.642;2023-07-16T00:21:19;95162.91;;;23.40;65.44
26978;BME280;56314;48.088;11.642;2023-07-16T00:23:44;95172.19;;;23.38;65.60
26978;BME280;56314;48.088;11.642;2023-07-16T00:26:09;95171.56;;;23.29;66.46
26978;BME280;56314;48.088;11.642;2023-07-16T00:28:35;95175.66;;;23.25;66.63
26978;BME280;56314;48.088;11.642;2023-07-16T00:31:01;95177.53;;;23.24;67.28
26978;BME280;56314;48.088;11.642;2023-07-16T00:33:26;95185.16;;;23.20;67.41
26978;BME280;56314;48.088;11.642;2023-07-16T00:35:51;95181.97;;;23.10;67.84
26978;BME280;56314;48.088;11.642;2023-07-16T00:38:18;95187.56;;;23.09;68.46
26978;BME280;56314;48.088;11.642;2023-07-16T00:40:43;95198.25;;;23.09;68.60
26978;BME280;56314;48.088;11.642;2023-07-16T00:43:09;95201.16;;;23.07;68.95
26978;BME280;56314;48.088;11.642;2023-07-16T00:45:35;95197.44;;;23.08;68.87
26978;BME280;56314;48.088;11.642;2023-07-16T00:48:00;95213.50;;;23.01;69.38
26978;BME280;56314;48.088;11.642;2023-07-16T00:50:26;95229.31;;;22.96;69.29
26978;BME280;56314;48.088;11.642;2023-07-16T00:52:51;95236.94;;;22.93;69.77
26978;BME280;56314;48.088;11.642;2023-07-16T00:55:17;95251.59;;;22.97;69.82
26978;BME280;56314;48.088;11.642;2023-07-16T00:57:43;95278.13;;;22.91;70.18
26978;BME280;56314;48.088;11.642;2023-07-16T01:00:08;95302.16;;;22.85;70.08
26978;BME280;56314;48.088;11.642;2023-07-16T01:02:35;95305.19;;;22.75;70.66
26978;BME280;56314;48.088;11.642;2023-07-16T01:05:01;95318.16;;;22.71;70.97
26978;BME280;56314;48.088;11.642;2023-07-16T01:07:27;95334.59;;;22.68;71.15
26978;BME280;56314;48.088;11.642;2023-07-16T01:09:54;95331.88;;;22.62;71.67
26978;BME280;56314;48.088;11.642;2023-07-16T01:12:22;95345.63;;;22.52;72.22
26978;BME280;56314;48.088;11.642;2023-07-16T01:14:47;95360.66;;;22.53;72.95
26978;BME280;56314;48.088;11.642;2023-07-16T01:17:13;95364.53;;;22.50;72.94
26978;BME280;56314;48.088;11.642;2023-07-16T01:19:38;95372.97;;;22.47;73.19
26978;BME280;56314;48.088;11.642;2023-07-16T01:22:10;95369.75;;;22.37;73.90
26978;BME280;56314;48.088;11.642;2023-07-16T01:25:16;95373.25;;;22.37;74.65
26978;BME280;56314;48.088;11.642;2023-07-16T01:30:30;95373.13;;;22.45;74.37
26978;BME280;56314;48.088;11.642;2023-07-16T01:32:57;95381.75;;;22.41;74.63
26978;BME280;56314;48.088;11.642;2023-07-16T01:35:22;95382.66;;;22.33;75.09
26978;BME280;56314;48.088;11.642;2023-07-16T01:37:48;95378.53;;;22.30;75.44
26978;BME280;56314;48.088;11.642;2023-07-16T01:40:14;95381.84;;;22.33;75.88
26978;BME280;56314;48.088;11.642;2023-07-16T01:42:39;95385.34;;;22.33;75.70
26978;BME280;56314;48.088;11.642;2023-07-16T01:45:05;95400.38;;;22.34;75.76
26978;BME280;56314;48.088;11.642;2023-07-16T01:47:55;95386.94;;;22.27;75.93
26978;BME280;56314;48.088;11.642;2023-07-16T01:50:24;95397.25;;;22.30;76.10
26978;BME280;56314;48.088;11.642;2023-07-16T01:52:49;95409.56;;;22.25;76.53
26978;BME280;56314;48.088;11.642;2023-07-16T01:55:15;95402.91;;;22.21;76.61
26978;BME280;56314;48.088;11.642;2023-07-16T01:57:40;95413.56;;;22.14;76.90
26978;BME280;56314;48.088;11.642;2023-07-16T02:00:06;95405.34;;;22.16;77.23
26978;BME280;56314;48.088;11.642;2023-07-16T02:02:33;95414.47;;;22.21;77.31
26978;BME280;56314;48.088;11.642;2023-07-16T02:04:58;95422.50;;;22.21;77.29
26978;BME280;56314;48.088;11.642;2023-07-16T02:07:23;95416.13;;;22.22;77.27
26978;BME280;56314;48.088;11.642;2023-07-16T02:09:49;95417.78;;;22.23;77.03
26978;BME280;56314;48.088;11.642;2023-07-16T02:12:15;95413.19;;;22.17;77.17
26978;BME280;56314;48.088;11.642;2023-07-16T02:14:40;95419.38;;;22.18;77.56
26978;BME280;56314;48.088;11.642;2023-07-16T02:17:05;95427.84;;;22.21;77.76
26978;BME280;56314;48.088;11.642;2023-07-16T02:19:30;95423.50;;;22.20;77.92
26978;BME280;56314;48.088;11.642;2023-07-16T02:21:56;95434.28;;;22.27;77.79
26978;BME280;56314;48.088;11.642;2023-07-16T02:24:21;95427.91;;;22.28;77.77
26978;BME280;56314;48.088;11.642;2023-07-16T02:26:46;95424.78;;;22.24;77.61
26978;BME280;56314;48.088;11.642;2023-07-16T02:29:12;95417.56;;;22.25;78.01
26978;BME280;56314;48.088;11.642;2023-07-16T02:31:37;95414.63;;;22.20;77.69
26978;BME280;56314;48.088;11.642;2023-07-16T02:34:02;95416.44;;;22.12;77.93
26978;BME280;56314;48.088;11.642;2023-07-16T02:36:28;95424.44;;;22.12;78.08
26978;BME280;56314;48.088;11.642;2023-07-16T02:38:53;95418.59;;;22.02;78.16
26978;BME280;56314;48.088;11.642;2023-07-16T02:41:18;95425.84;;;22.08;78.65
26978;BME280;56314;48.088;11.642;2023-07-16T02:43:45;95428.50;;;22.08;78.42
26978;BME280;56314;48.088;11.642;2023-07-16T02:46:11;95437.00;;;22.12;78.13
26978;BME280;56314;48.088;11.642;2023-07-16T02:48:36;95442.06;;;22.07;78.33
26978;BME280;56314;48.088;11.642;2023-07-16T02:51:02;95453.78;;;22.06;78.33
26978;BME280;56314;48.088;11.642;2023-07-16T02:53:27;95456.47;;;22.06;78.33
26978;BME280;56314;48.088;11.642;2023-07-16T02:55:52;95461.56;;;22.01;78.24
26978;BME280;56314;48.088;11.642;2023-07-16T02:58:18;95459.06;;;21.99;78.33
26978;BME280;56314;48.088;11.642;2023-07-16T03:00:43;95445.56;;;22.07;78.19
26978;BME280;56314;48.088;11.642;2023-07-16T03:03:08;95454.44;;;22.08;78.40
26978;BME280;56314;48.088;11.642;2023-07-16T03:05:34;95448.63;;;22.04;78.34
26978;BME280;56314;48.088;11.642;2023-07-16T03:07:59;95456.25;;;22.07;78.93
26978;BME280;56314;48.088;11.642;2023-07-16T03:10:25;95465.94;;;22.08;78.36
26978;BME280;56314;48.088;11.642;2023-07-16T03:12:52;95462.44;;;22.08;78.88
26978;BME280;56314;48.088;11.642;2023-07-16T03:15:17;95463.91;;;22.10;78.66
26978;BME280;56314;48.088;11.642;2023-07-16T03:17:42;95461.81;;;22.06;78.23
26978;BME280;56314;48.088;11.642;2023-07-16T03:20:08;95456.66;;;22.04;78.82
26978;BME280;56314;48.088;11.642;2023-07-16T03:22:34;95451.31;;;22.04;79.26
26978;BME280;56314;48.088;11.642;2023-07-16T03:24:59;95454.56;;;21.99;78.95
26978;BME280;56314;48.088;11.642;2023-07-16T03:27:24;95457.47;;;22.05;79.00
26978;BME280;56314;48.088;11.642;2023-07-16T03:29:50;95455.00;;;22.03;78.78
26978;BME280;56314;48.088;11.642;2023-07-16T03:32:15;95464.03;;;22.02;79.08
26978;BME280;56314;48.088;11.642;2023-07-16T03:34:40;95461.94;;;21.97;79.48
26978;BME280;56314;48.088;11.642;2023-07-16T03:37:06;95477.97;;;21.97;79.82
26978;BME280;56314;48.088;11.642;2023-07-16T03:39:31;95471.97;;;21.95;79.85
26978;BME280;56314;48.088;11.642;2023-07-16T03:41:56;95475.31;;;21.97;79.58
26978;BME280;56314;48.088;11.642;2023-07-16T03:44:22;95483.50;;;21.96;78.78
26978;BME280;56314;48.088;11.642;2023-07-16T03:46:47;95485.63;;;22.01;78.48
26978;BME280;56314;48.088;11.642;2023-07-16T03:49:12;95488.53;;;22.06;77.46
26978;BME280;56314;48.088;11.642;2023-07-16T03:51:39;95491.41;;;22.04;77.39
26978;BME280;56314;48.088;11.642;2023-07-16T03:54:04;95484.41;;;22.03;76.73
26978;BME280;56314;48.088;11.642;2023-07-16T03:56:30;95484.78;;;22.00;76.37
26978;BME280;56314;48.088;11.642;2023-07-16T03:58:55;95493.09;;;21.90;76.73
26978;BME280;56314;48.088;11.642;2023-07-16T04:01:20;95491.25;;;21.91;76.72
26978;BME280;56314;48.088;11.642;2023-07-16T04:03:45;95491.25;;;21.91;76.86
26978;BME280;56314;48.088;11.642;2023-07-16T04:06:11;95498.91;;;21.94;77.14
26978;BME280;56314;48.088;11.642;2023-07-16T04:08:37;95504.44;;;21.92;77.50
26978;BME280;56314;48.088;11.642;2023-07-16T04:11:04;95503.78;;;21.90;77.86
26978;BME280;56314;48.088;11.642;2023-07-16T04:13:30;95505.44;;;21.91;78.52
26978;BME280;56314;48.088;11.642;2023-07-16T04:15:55;95509.97;;;21.91;78.97
26978;BME280;56314;48.088;11.642;2023-07-16T04:18:22;95514.88;;;21.87;79.71
26978;BME280;56314;48.088;11.642;2023-07-16T04:20:48;95521.41;;;21.84;81.12
26978;BME280;56314;48.088;11.642;2023-07-16T04:23:13;95533.66;;;21.94;83.17
26978;BME280;56314;48.088;11.642;2023-07-16T04:25:38;95541.50;;;21.95;85.87
26978;BME280;56314;48.088;11.642;2023-07-16T04:28:04;95545.34;;;21.78;87.20
26978;BME280;56314;48.088;11.642;2023-07-16T04:30:29;95545.00;;;21.66;92.28
26978;BME280;56314;48.088;11.642;2023-07-16T04:32:55;95551.69;;;21.47;96.32
26978;BME280;56314;48.088;11.642;2023-07-16T04:35:20;95568.25;;;21.27;99.93
26978;BME280;56314;48.088;11.642;2023-07-16T04:37:45;95572.72;;;21.12;100.00
26978;BME280;56314;48.088;11.642;2023-07-16T04:40:11;95579.19;;;20.94;100.00
26978;BME280;56314;48.088;11.642;2023-07-16T04:42:36;95576.78;;;20.84;100.00
26978;BME280;56314;48.088;11.642;2023-07-16T04:45:02;95575.81;;;20.77;100.00
26978;BME280;56314;48.088;11.642;2023-07-16T04:47:28;95578.97;;;20.72;100.00
26978;BME280;56314;48.088;11.642;2023-07-16T04:49:53;95567.78;;;20.54;100.00
26978;BME280;56314;48.088;11.642;2023-07-16T04:52:18;95576.94;;;20.51;100.00
26978;BME280;56314;48.088;11.642;2023-07-16T04:54:44;95581.91;;;20.31;100.00
26978;BME280;56314;48.088;11.642;2023-07-16T04:57:09;95578.59;;;20.29;100.00
26978;BME280;56314;48.088;11.642;2023-07-16T04:59:34;95582.25;;;20.28;100.00
26978;BME280;56314;48.088;11.642;2023-07-16T05:02:02;95594.44;;;20.22;100.00
26978;BME280;56314;48.088;11.642;2023-07-16T05:04:27;95599.69;;;20.07;100.00
26978;BME280;56314;48.088;11.642;2023-07-16T05:06:53;95598.34;;;20.03;100.00
26978;BME280;56314;48.088;11.642;2023-07-16T05:09:18;95592.19;;;20.03;100.00
26978;BME280;56314;48.088;11.642;2023-07-16T05:11:44;95578.34;;;20.07;100.00
26978;BME280;56314;48.088;11.642;2023-07-16T05:14:10;95574.56;;;19.93;100.00
26978;BME280;56314;48.088;11.642;2023-07-16T05:16:35;95562.06;;;19.85;100.00
26978;BME280;56314;48.088;11.642;2023-07-16T05:19:00;95555.78;;;19.78;100.00
26978;BME280;56314;48.088;11.642;2023-07-16T05:21:26;95557.63;;;19.78;100.00
26978;BME280;56314;48.088;11.642;2023-07-16T05:23:51;95568.91;;;19.80;100.00
26978;BME280;56314;48.088;11.642;2023-07-16T05:26:16;95576.56;;;19.91;100.00
26978;BME280;56314;48.088;11.642;2023-07-16T05:28:41;95575.41;;;19.94;100.00
26978;BME280;56314;48.088;11.642;2023-07-16T05:31:07;95580.84;;;20.09;100.00
26978;BME280;56314;48.088;11.642;2023-07-16T05:33:32;95584.47;;;20.16;100.00
26978;BME280;56314;48.088;11.642;2023-07-16T05:35:58;95580.63;;;20.19;100.00
26978;BME280;56314;48.088;11.642;2023-07-16T05:38:23;95573.13;;;20.22;100.00
26978;BME280;56314;48.088;11.642;2023-07-16T05:40:48;95575.66;;;20.15;99.54
26978;BME280;56314;48.088;11.642;2023-07-16T05:43:14;95577.31;;;20.17;100.00
26978;BME280;56314;48.088;11.642;2023-07-16T05:45:40;95578.66;;;20.12;100.00
26978;BME280;56314;48.088;11.642;2023-07-16T05:48:05;95582.97;;;20.13;100.00
26978;BME280;56314;48.088;11.642;2023-07-16T05:50:30;95601.31;;;20.17;100.00
26978;BME280;56314;48.088;11.642;2023-07-16T05:52:56;95601.16;;;20.10;100.00
26978;BME280;56314;48.088;11.642;2023-07-16T05:55:21;95607.44;;;20.17;100.00
26978;BME280;56314;48.088;11.642;2023-07-16T05:57:46;95607.94;;;20.21;100.00
26978;BME280;56314;48.088;11.642;2023-07-16T06:00:12;95604.41;;;20.28;100.00
26978;BME280;56314;48.088;11.642;2023-07-16T06:02:38;95615.69;;;20.39;100.00
26978;BME280;56314;48.088;11.642;2023-07-16T06:05:05;95615.53;;;20.40;100.00
26978;BME280;56314;48.088;11.642;2023-07-16T06:07:30;95615.78;;;20.54;100.00
26978;BME280;56314;48.088;11.642;2023-07-16T06:09:56;95617.41;;;20.63;100.00
26978;BME280;56314;48.088;11.642;2023-07-16T06:12:21;95614.50;;;20.73;99.71
26978;BME280;56314;48.088;11.642;2023-07-16T06:14:47;95611.34;;;20.78;96.10
26978;BME280;56314;48.088;11.642;2023-07-16T06:17:12;95616.44;;;20.87;97.23
26978;BME280;56314;48.088;11.642;2023-07-16T06:19:37;95605.53;;;20.97;97.50
26978;BME280;56314;48.088;11.642;2023-07-16T06:22:03;95618.88;;;20.97;93.50
26978;BME280;56314;48.088;11.642;2023-07-16T06:24:28;95618.16;;;21.03;95.09
26978;BME280;56314;48.088;11.642;2023-07-16T06:26:54;95632.38;;;21.19;94.64
26978;BME280;56314;48.088;11.642;2023-07-16T06:29:19;95626.56;;;21.38;94.09
26978;BME280;56314;48.088;11.642;2023-07-16T06:31:54;95638.06;;;21.62;90.87
26978;BME280;56314;48.088;11.642;2023-07-16T06:34:21;95640.25;;;21.59;90.10
26978;BME280;56314;48.088;11.642;2023-07-16T06:36:47;95640.97;;;21.52;90.18
26978;BME280;56314;48.088;11.642;2023-07-16T06:39:12;95637.41;;;21.37;91.15
26978;BME280;56314;48.088;11.642;2023-07-16T06:41:37;95636.47;;;21.30;92.33
26978;BME280;56314;48.088;11.642;2023-07-16T06:44:03;95638.22;;;21.22;92.75
26978;BME280;56314;48.088;11.642;2023-07-16T06:46:28;95630.53;;;21.04;92.72
26978;BME280;56314;48.088;11.642;2023-07-16T06:48:53;95632.69;;;21.01;94.92
26978;BME280;56314;48.088;11.642;2023-07-16T06:51:19;95628.78;;;21.12;96.51
26978;BME280;56314;48.088;11.642;2023-07-16T06:53:44;95636.72;;;21.20;96.49
26978;BME280;56314;48.088;11.642;2023-07-16T06:56:09;95635.00;;;21.27;96.88
26978;BME280;56314;48.088;11.642;2023-07-16T06:58:35;95636.59;;;21.36;98.92
26978;BME280;56314;48.088;11.642;2023-07-16T07:01:00;95641.94;;;21.36;96.46
26978;BME280;56314;48.088;11.642;2023-07-16T07:03:25;95637.47;;;21.52;97.01
26978;BME280;56314;48.088;11.642;2023-07-16T07:05:51;95635.97;;;21.73;96.90
26978;BME280;56314;48.088;11.642;2023-07-16T07:08:16;95640.94;;;21.76;96.68
26978;BME280;56314;48.088;11.642;2023-07-16T07:10:42;95640.50;;;21.87;97.42
26978;BME280;56314;48.088;11.642;2023-07-16T07:13:07;95636.81;;;22.03;94.60
26978;BME280;56314;48.088;11.642;2023-07-16T07:15:32;95643.53;;;21.99;93.97
26978;BME280;56314;48.088;11.642;2023-07-16T07:17:57;95639.84;;;22.00;94.12
26978;BME280;56314;48.088;11.642;2023-07-16T07:20:23;95637.81;;;22.02;93.42
26978;BME280;56314;48.088;11.642;2023-07-16T07:22:48;95637.63;;;22.04;92.39
26978;BME280;56314;48.088;11.642;2023-07-16T07:25:14;95642.34;;;22.17;92.11
26978;BME280;56314;48.088;11.642;2023-07-16T07:27:39;95644.19;;;22.16;88.73
26978;BME280;56314;48.088;11.642;2023-07-16T07:30:05;95636.59;;;22.20;89.70
26978;BME280;56314;48.088;11.642;2023-07-16T07:32:30;95631.06;;;22.36;90.36
26978;BME280;56314;48.088;11.642;2023-07-16T07:34:56;95641.50;;;22.31;87.05
26978;BME280;56314;48.088;11.642;2023-07-16T07:37:21;95635.03;;;22.25;89.03
26978;BME280;56314;48.088;11.642;2023-07-16T07:39:51;95636.44;;;22.21;86.99
26978;BME280;56314;48.088;11.642;2023-07-16T07:42:17;95629.63;;;22.19;84.08
26978;BME280;56314;48.088;11.642;2023-07-16T07:44:42;95636.44;;;22.21;86.80
26978;BME280;56314;48.088;11.642;2023-07-16T07:47:07;95628.97;;;22.17;86.48
26978;BME280;56314;48.088;11.642;2023-07-16T07:49:33;95627.47;;;22.14;85.65
26978;BME280;56314;48.088;11.642;2023-07-16T07:51:59;95626.00;;;22.11;83.95
26978;BME280;56314;48.088;11.642;2023-07-16T07:54:25;95632.56;;;22.09;83.31
26978;BME280;56314;48.088;11.642;2023-07-16T07:56:50;95626.69;;;21.98;82.02
26978;BME280;56314;48.088;11.642;2023-07-16T07:59:15;95623.09;;;22.06;84.18
26978;BME280;56314;48.088;11.642;2023-07-16T08:01:41;95634.31;;;22.17;86.76
26978;BME280;56314;48.088;11.642;2023-07-16T08:04:06;95631.81;;;22.15;84.16
26978;BME280;56314;48.088;11.642;2023-07-16T08:06:31;95625.91;;;22.20;82.94
26978;BME280;56314;48.088;11.642;2023-07-16T08:08:57;95620.97;;;22.17;84.45
26978;BME280;56314;48.088;11.642;2023-07-16T08:11:22;95624.81;;;22.14;80.55
26978;BME280;56314;48.088;11.642;2023-07-16T08:13:47;95623.25;;;22.35;80.38
26978;BME280;56314;48.088;11.642;2023-07-16T08:16:14;95620.88;;;22.62;81.61
26978;BME280;56314;48.088;11.642;2023-07-16T08:18:39;95610.53;;;22.73;82.91
26978;BME280;56314;48.088;11.642;2023-07-16T08:21:05;95610.34;;;22.75;82.64
26978;BME280;56314;48.088;11.642;2023-07-16T08:23:30;95605.69;;;22.84;79.18
26978;BME280;56314;48.088;11.642;2023-07-16T08:25:55;95595.38;;;23.02;78.12
26978;BME280;56314;48.088;11.642;2023-07-16T08:28:21;95600.94;;;23.23;78.41
26978;BME280;56314;48.088;11.642;2023-07-16T08:30:47;95599.44;;;23.42;76.25
26978;BME280;56314;48.088;11.642;2023-07-16T08:33:13;95599.94;;;23.80;75.09
26978;BME280;56314;48.088;11.642;2023-07-16T08:35:40;95596.28;;;24.23;73.27
26978;BME280;56314;48.088;11.642;2023-07-16T08:38:05;95588.97;;;25.55;69.13
26978;BME280;56314;48.088;11.642;2023-07-16T08:40:35;95575.25;;;26.55;64.98
26978;BME280;56314;48.088;11.642;2023-07-16T08:43:01;95573.59;;;26.93;60.05
26978;BME280;56314;48.088;11.642;2023-07-16T08:45:29;95582.34;;;26.88;61.12
26978;BME280;56314;48.088;11.642;2023-07-16T08:47:55;95592.47;;;26.48;57.69
26978;BME280;56314;48.088;11.642;2023-07-16T08:50:21;95583.47;;;26.22;58.44
26978;BME280;56314;48.088;11.642;2023-07-16T08:52:48;95581.00;;;26.14;61.80
26978;BME280;56314;48.088;11.642;2023-07-16T08:55:13;95583.31;;;26.10;59.03
26978;BME280;56314;48.088;11.642;2023-07-16T08:57:39;95583.72;;;25.93;58.17
26978;BME280;56314;48.088;11.642;2023-07-16T09:00:07;95594.50;;;25.73;57.97
26978;BME280;56314;48.088;11.642;2023-07-16T09:02:32;95597.63;;;25.57;58.78
26978;BME280;56314;48.088;11.642;2023-07-16T09:04:58;95592.69;;;25.54;56.92
26978;BME280;56314;48.088;11.642;2023-07-16T09:07:24;95589.72;;;25.95;53.72
26978;BME280;56314;48.088;11.642;2023-07-16T09:09:59;95583.69;;;26.66;52.00
26978;BME280;56314;48.088;11.642;2023-07-16T09:12:25;95577.50;;;27.55;49.60
26978;BME280;56314;48.088;11.642;2023-07-16T09:14:50;95576.06;;;28.70;48.99
26978;BME280;56314;48.088;11.642;2023-07-16T09:17:23;95579.66;;;28.83;45.39
26978;BME280;56314;48.088;11.642;2023-07-16T09:19:50;95561.03;;;29.05;44.75
26978;BME280;56314;48.088;11.642;2023-07-16T09:22:17;95551.28;;;29.82;43.83
26978;BME280;56314;48.088;11.642;2023-07-16T09:24:45;95549.53;;;30.40;43.26
26978;BME280;56314;48.088;11.642;2023-07-16T09:27:11;95556.69;;;30.88;41.47
26978;BME280;56314;48.088;11.642;2023-07-16T09:29:38;95552.03;;;31.68;42.35
26978;BME280;56314;48.088;11.642;2023-07-16T09:32:04;95548.25;;;31.86;37.47
26978;BME280;56314;48.088;11.642;2023-07-16T09:34:31;95548.28;;;31.69;36.55
26978;BME280;56314;48.088;11.642;2023-07-16T09:37:00;95544.97;;;31.84;35.42
26978;BME280;56314;48.088;11.642;2023-07-16T09:39:27;95543.81;;;31.97;36.50
26978;BME280;56314;48.088;11.642;2023-07-16T09:41:53;95544.75;;;31.86;38.62
26978;BME280;56314;48.088;11.642;2023-07-16T09:44:19;95548.63;;;31.22;37.46
26978;BME280;56314;48.088;11.642;2023-07-16T09:46:45;95531.19;;;30.71;38.83
26978;BME280;56314;48.088;11.642;2023-07-16T09:49:11;95538.69;;;30.98;41.26
26978;BME280;56314;48.088;11.642;2023-07-16T09:51:38;95529.59;;;31.56;38.26
26978;BME280;56314;48.088;11.642;2023-07-16T09:54:04;95532.81;;;31.87;37.97
26978;BME280;56314;48.088;11.642;2023-07-16T09:56:39;95531.34;;;31.62;37.00
26978;BME280;56314;48.088;11.642;2023-07-16T09:59:08;95521.28;;;31.80;37.23
26978;BME280;56314;48.088;11.642;2023-07-16T10:01:36;95526.13;;;32.17;39.14
26978;BME280;56314;48.088;11.642;2023-07-16T10:04:17;95533.66;;;31.70;36.29
26978;BME280;56314;48.088;11.642;2023-07-16T10:06:53;95521.16;;;31.69;38.08
26978;BME280;56314;48.088;11.642;2023-07-16T10:09:39;95528.44;;;31.86;35.38
26978;BME280;56314;48.088;11.642;2023-07-16T10:12:14;95524.78;;;32.19;35.38
26978;BME280;56314;48.088;11.642;2023-07-16T10:14:47;95524.47;;;32.60;35.23
26978;BME280;56314;48.088;11.642;2023-07-16T10:19:50;95518.13;;;32.77;35.17
26978;BME280;56314;48.088;11.642;2023-07-16T10:22:17;95520.53;;;32.73;35.94
26978;BME280;56314;48.088;11.642;2023-07-16T10:24:43;95526.78;;;32.74;33.66
26978;BME280;56314;48.088;11.642;2023-07-16T10:27:09;95523.72;;;32.65;32.94
26978;BME280;56314;48.088;11.642;2023-07-16T10:29:34;95533.75;;;32.64;33.40
26978;BME280;56314;48.088;11.642;2023-07-16T10:32:02;95519.66;;;32.67;33.31
26978;BME280;56314;48.088;11.642;2023-07-16T10:34:27;95515.84;;;32.91;34.72
26978;BME280;56314;48.088;11.642;2023-07-16T10:36:52;95518.66;;;33.34;34.62
26978;BME280;56314;48.088;11.642;2023-07-16T10:39:18;95516.69;;;33.61;33.54
26978;BME280;56314;48.088;11.642;2023-07-16T10:41:44;95515.16;;;33.76;33.25
26978;BME280;56314;48.088;11.642;2023-07-16T10:44:13;95502.91;;;33.79;33.24
26978;BME280;56314;48.088;11.642;2023-07-16T10:46:41;95500.28;;;33.89;33.15
26978;BME280;56314;48.088;11.642;2023-07-16T10:49:07;95506.53;;;33.46;33.29
26978;BME280;56314;48.088;11.642;2023-07-16T10:51:32;95506.09;;;32.95;33.87
26978;BME280;56314;48.088;11.642;2023-07-16T10:53:58;95505.53;;;32.43;34.22
26978;BME280;56314;48.088;11.642;2023-07-16T10:56:23;95500.06;;;32.88;36.77
26978;BME280;56314;48.088;11.642;2023-07-16T10:58:49;95506.03;;;33.50;36.61
26978;BME280;56314;48.088;11.642;2023-07-16T11:01:14;95499.47;;;33.88;34.75
26978;BME280;56314;48.088;11.642;2023-07-16T11:03:40;95499.78;;;34.02;34.20
26978;BME280;56314;48.088;11.642;2023-07-16T11:06:06;95508.63;;;33.77;33.85
26978;BME280;56314;48.088;11.642;2023-07-16T11:08:32;95497.41;;;33.68;32.87
26978;BME280;56314;48.088;11.642;2023-07-16T11:10:58;95510.53;;;33.76;33.37
26978;BME280;56314;48.088;11.642;2023-07-16T11:13:28;95498.22;;;33.64;34.52
26978;BME280;56314;48.088;11.642;2023-07-16T11:15:54;95498.22;;;33.64;33.65
26978;BME280;56314;48.088;11.642;2023-07-16T11:18:22;95495.09;;;33.87;34.80
26978;BME280;56314;48.088;11.642;2023-07-16T11:20:52;95511.50;;;33.98;33.77
26978;BME280;56314;48.088;11.642;2023-07-16T11:23:18;95496.59;;;33.30;33.67
26978;BME280;56314;48.088;11.642;2023-07-16T11:25:49;95490.94;;;32.77;36.34
26978;BME280;56314;48.088;11.642;2023-07-16T11:28:15;95490.00;;;32.66;34.27
26978;BME280;56314;48.088;11.642;2023-07-16T11:30:41;95483.88;;;32.04;35.72
26978;BME280;56314;48.088;11.642;2023-07-16T11:33:12;95478.66;;;31.41;37.86
26978;BME280;56314;48.088;11.642;2023-07-16T11:35:38;95468.03;;;31.05;37.97
26978;BME280;56314;48.088;11.642;2023-07-16T11:38:04;95471.38;;;30.61;40.03
26978;BME280;56314;48.088;11.642;2023-07-16T11:40:34;95472.25;;;31.13;37.97
26978;BME280;56314;48.088;11.642;2023-07-16T11:43:10;95475.34;;;31.56;37.60
26978;BME280;56314;48.088;11.642;2023-07-16T11:45:37;95483.53;;;32.00;37.53
26978;BME280;56314;48.088;11.642;2023-07-16T11:48:03;95487.53;;;31.92;37.13
26978;BME280;56314;48.088;11.642;2023-07-16T11:50:29;95483.56;;;31.61;36.60
26978;BME280;56314;48.088;11.642;2023-07-16T11:52:58;95475.59;;;31.93;36.15
26978;BME280;56314;48.088;11.642;2023-07-16T11:55:24;95466.53;;;32.05;35.85
26978;BME280;56314;48.088;11.642;2023-07-16T11:57:49;95464.88;;;31.65;35.77
26978;BME280;56314;48.088;11.642;2023-07-16T12:00:15;95461.16;;;31.31;37.48
26978;BME280;56314;48.088;11.642;2023-07-16T12:02:42;95456.91;;;31.97;39.40
26978;BME280;56314;48.088;11.642;2023-07-16T12:05:08;95459.59;;;32.42;38.04
26978;BME280;56314;48.088;11.642;2023-07-16T12:07:35;95449.53;;;32.42;36.39
26978;BME280;56314;48.088;11.642;2023-07-16T12:10:02;95452.72;;;32.61;37.40
26978;BME280;56314;48.088;11.642;2023-07-16T12:12:28;95452.44;;;32.85;37.63
26978;BME280;56314;48.088;11.642;2023-07-16T12:14:54;95452.72;;;32.34;37.66
26978;BME280;56314;48.088;11.642;2023-07-16T12:17:19;95453.56;;;31.90;38.45
26978;BME280;56314;48.088;11.642;2023-07-16T12:19:44;95449.66;;;31.24;39.88
26978;BME280;56314;48.088;11.642;2023-07-16T12:22:10;95447.75;;;30.91;39.74
26978;BME280;56314;48.088;11.642;2023-07-16T12:24:35;95452.69;;;30.48;40.41
26978;BME280;56314;48.088;11.642;2023-07-16T12:27:01;95448.06;;;30.31;41.51
26978;BME280;56314;48.088;11.642;2023-07-16T12:29:26;95444.41;;;30.25;40.39
26978;BME280;56314;48.088;11.642;2023-07-16T12:31:52;95440.03;;;29.95;41.45
26978;BME280;56314;48.088;11.642;2023-07-16T12:34:17;95440.03;;;29.95;42.49
26978;BME280;56314;48.088;11.642;2023-07-16T12:36:42;95445.72;;;29.82;40.93
26978;BME280;56314;48.088;11.642;2023-07-16T12:39:07;95449.31;;;29.35;41.50
26978;BME280;56314;48.088;11.642;2023-07-16T12:41:33;95445.38;;;29.31;42.19
26978;BME280;56314;48.088;11.642;2023-07-16T12:43:58;95446.09;;;29.26;42.09
26978;BME280;56314;48.088;11.642;2023-07-16T12:46:23;95446.13;;;29.38;42.80
26978;BME280;56314;48.088;11.642;2023-07-16T12:48:49;95451.44;;;29.45;44.56